sensor_id;sensor_type;location;lat;lon;timestamp;P1;durP1;ratioP1;P2;durP2;ratioP2
57307;SDS011;43152;50.968;18.214;2023-08-12T00:08:58;6.10;;;2.80;;
57307;SDS011;43152;50.968;18.214;2023-08-12T00:18:40;6.70;;;2.50;;
57307;SDS011;43152;50.968;18.214;2023-08-12T00:28:30;8.80;;;4.60;;
57307;SDS011;43152;50.968;18.214;2023-08-12T00:38:12;9.50;;;4.60;;
57307;SDS011;43152;50.968;18.214;2023-08-12T00:47:54;9.00;;;4.90;;
57307;SDS011;43152;50.968;18.214;2023-08-12T00:57:37;10.10;;;3.60;;
57307;SDS011;43152;50.968;18.214;2023-08-12T01:07:20;7.80;;;3.90;;
57307;SDS011;43152;50.968;18.214;2023-08-12T01:17:27;9.30;;;2.90;;
57307;SDS011;43152;50.968;18.214;2023-08-12T01:27:12;12.80;;;2.50;;
57307;SDS011;43152;50.968;18.214;2023-08-12T01:36:59;7.20;;;3.70;;
57307;SDS011;43152;50.968;18.214;2023-08-12T01:46:44;8.60;;;3.70;;
57307;SDS011;43152;50.968;18.214;2023-08-12T01:56:26;6.70;;;2.80;;
57307;SDS011;43152;50.968;18.214;2023-08-12T02:06:10;6.60;;;3.50;;
57307;SDS011;43152;50.968;18.214;2023-08-12T02:15:53;4.30;;;1.20;;
57307;SDS011;43152;50.968;18.214;2023-08-12T02:25:37;17.30;;;3.90;;
57307;SDS011;43152;50.968;18.214;2023-08-12T02:35:20;9.40;;;3.40;;
57307;SDS011;43152;50.968;18.214;2023-08-12T02:45:04;7.30;;;3.20;;
57307;SDS011;43152;50.968;18.214;2023-08-12T02:54:47;8.40;;;3.00;;
57307;SDS011;43152;50.968;18.214;2023-08-12T03:04:29;5.30;;;2.60;;
57307;SDS011;43152;50.968;18.214;2023-08-12T03:14:12;4.90;;;2.30;;
57307;SDS011;43152;50.968;18.214;2023-08-12T03:23:54;8.40;;;3.10;;
57307;SDS011;43152;50.968;18.214;2023-08-12T03:33:37;6.50;;;2.80;;
57307;SDS011;43152;50.968;18.214;2023-08-12T03:43:19;4.30;;;2.10;;
57307;SDS011;43152;50.968;18.214;2023-08-12T03:53:03;5.50;;;2.60;;
57307;SDS011;43152;50.968;18.214;2023-08-12T04:02:53;10.20;;;4.70;;
57307;SDS011;43152;50.968;18.214;2023-08-12T04:12:35;7.30;;;3.70;;
57307;SDS011;43152;50.968;18.214;2023-08-12T04:22:21;8.40;;;4.10;;
57307;SDS011;43152;50.968;18.214;2023-08-12T04:32:04;15.50;;;3.30;;
57307;SDS011;43152;50.968;18.214;2023-08-12T04:41:47;7.30;;;3.70;;
57307;SDS011;43152;50.968;18.214;2023-08-12T04:51:30;16.30;;;3.60;;
57307;SDS011;43152;50.968;18.214;2023-08-12T05:01:15;10.90;;;3.70;;
57307;SDS011;43152;50.968;18.214;2023-08-12T05:10:57;7.00;;;3.00;;
57307;SDS011;43152;50.968;18.214;2023-08-12T05:20:40;5.40;;;2.20;;
57307;SDS011;43152;50.968;18.214;2023-08-12T05:30:23;12.30;;;2.40;;
57307;SDS011;43152;50.968;18.214;2023-08-12T05:40:07;6.30;;;2.50;;
57307;SDS011;43152;50.968;18.214;2023-08-12T05:49:51;7.70;;;2.30;;
57307;SDS011;43152;50.968;18.214;2023-08-12T05:59:33;13.50;;;2.50;;
57307;SDS011;43152;50.968;18.214;2023-08-12T06:09:16;7.60;;;2.50;;
57307;SDS011;43152;50.968;18.214;2023-08-12T06:18:59;7.90;;;2.20;;
57307;SDS011;43152;50.968;18.214;2023-08-12T06:48:49;6.70;;;2.60;;
57307;SDS011;43152;50.968;18.214;2023-08-12T06:58:31;10.40;;;1.20;;
57307;SDS011;43152;50.968;18.214;2023-08-12T07:08:15;3.20;;;1.30;;
57307;SDS011;43152;50.968;18.214;2023-08-12T07:17:57;4.80;;;1.40;;
57307;SDS011;43152;50.968;18.214;2023-08-12T07:27:42;5.10;;;1.50;;
57307;SDS011;43152;50.968;18.214;2023-08-12T07:37:26;10.30;;;1.70;;
57307;SDS011;43152;50.968;18.214;2023-08-12T07:47:08;2.10;;;1.10;;
57307;SDS011;43152;50.968;18.214;2023-08-12T07:56:51;2.60;;;1.10;;
57307;SDS011;43152;50.968;18.214;2023-08-12T08:06:36;6.70;;;0.90;;
57307;SDS011;43152;50.968;18.214;2023-08-12T08:16:20;2.90;;;1.00;;
57307;SDS011;43152;50.968;18.214;2023-08-12T08:26:05;3.20;;;1.00;;
57307;SDS011;43152;50.968;18.214;2023-08-12T08:35:50;3.90;;;1.30;;
57307;SDS011;43152;50.968;18.214;2023-08-12T08:45:33;3.40;;;1.10;;
57307;SDS011;43152;50.968;18.214;2023-08-12T08:55:22;3.00;;;0.90;;
57307;SDS011;43152;50.968;18.214;2023-08-12T09:05:05;2.20;;;0.90;;
57307;SDS011;43152;50.968;18.214;2023-08-12T09:14:49;4.30;;;0.80;;
57307;SDS011;43152;50.968;18.214;2023-08-12T09:24:34;4.70;;;0.80;;
57307;SDS011;43152;50.968;18.214;2023-08-12T09:34:37;2.90;;;0.80;;
57307;SDS011;43152;50.968;18.214;2023-08-12T09:44:29;5.00;;;1.00;;
57307;SDS011;43152;50.968;18.214;2023-08-12T09:54:16;3.50;;;1.00;;
57307;SDS011;43152;50.968;18.214;2023-08-12T10:04:00;1.20;;;0.50;;
57307;SDS011;43152;50.968;18.214;2023-08-12T10:13:44;0.10;;;0.10;;
57307;SDS011;43152;50.968;18.214;2023-08-12T10:23:29;2.20;;;0.70;;
57307;SDS011;43152;50.968;18.214;2023-08-12T10:33:15;0.60;;;0.40;;
57307;SDS011;43152;50.968;18.214;2023-08-12T10:43:00;2.70;;;1.00;;
57307;SDS011;43152;50.968;18.214;2023-08-12T10:52:59;1.30;;;0.60;;
57307;SDS011;43152;50.968;18.214;2023-08-12T11:03:05;0.10;;;0.10;;
57307;SDS011;43152;50.968;18.214;2023-08-12T11:13:02;3.30;;;1.30;;
57307;SDS011;43152;50.968;18.214;2023-08-12T11:22:47;3.10;;;0.70;;
57307;SDS011;43152;50.968;18.214;2023-08-12T11:32:43;2.20;;;0.60;;
57307;SDS011;43152;50.968;18.214;2023-08-12T11:42:31;2.00;;;0.50;;
57307;SDS011;43152;50.968;18.214;2023-08-12T11:52:14;1.30;;;0.70;;
57307;SDS011;43152;50.968;18.214;2023-08-12T12:01:57;7.70;;;0.60;;
57307;SDS011;43152;50.968;18.214;2023-08-12T12:11:41;3.40;;;0.50;;
57307;SDS011;43152;50.968;18.214;2023-08-12T12:21:40;5.10;;;1.10;;
57307;SDS011;43152;50.968;18.214;2023-08-12T12:31:24;2.00;;;0.50;;
57307;SDS011;43152;50.968;18.214;2023-08-12T12:41:06;4.00;;;0.80;;
57307;SDS011;43152;50.968;18.214;2023-08-12T12:50:49;4.60;;;1.50;;
57307;SDS011;43152;50.968;18.214;2023-08-12T13:00:31;1.60;;;0.90;;
57307;SDS011;43152;50.968;18.214;2023-08-12T13:10:14;2.20;;;1.00;;
57307;SDS011;43152;50.968;18.214;2023-08-12T13:19:57;1.70;;;0.60;;
57307;SDS011;43152;50.968;18.214;2023-08-12T13:29:40;0.70;;;0.50;;
57307;SDS011;43152;50.968;18.214;2023-08-12T13:39:23;3.20;;;0.90;;
57307;SDS011;43152;50.968;18.214;2023-08-12T13:49:06;2.50;;;1.10;;
57307;SDS011;43152;50.968;18.214;2023-08-12T13:58:49;1.90;;;0.80;;
57307;SDS011;43152;50.968;18.214;2023-08-12T14:08:31;2.40;;;0.70;;
57307;SDS011;43152;50.968;18.214;2023-08-12T14:18:14;4.50;;;0.90;;
57307;SDS011;43152;50.968;18.214;2023-08-12T14:27:59;2.80;;;0.60;;
57307;SDS011;43152;50.968;18.214;2023-08-12T14:37:44;2.70;;;0.70;;
57307;SDS011;43152;50.968;18.214;2023-08-12T14:47:27;12.90;;;6.70;;
57307;SDS011;43152;50.968;18.214;2023-08-12T14:57:10;5.30;;;0.60;;
57307;SDS011;43152;50.968;18.214;2023-08-12T15:06:53;3.70;;;0.80;;
57307;SDS011;43152;50.968;18.214;2023-08-12T15:23:53;3.10;;;1.00;;
57307;SDS011;43152;50.968;18.214;2023-08-12T15:33:36;2.80;;;1.00;;
57307;SDS011;43152;50.968;18.214;2023-08-12T15:43:19;2.60;;;1.20;;
57307;SDS011;43152;50.968;18.214;2023-08-12T15:53:02;4.40;;;1.40;;
57307;SDS011;43152;50.968;18.214;2023-08-12T16:02:45;1.60;;;0.60;;
57307;SDS011;43152;50.968;18.214;2023-08-12T16:12:29;4.50;;;1.60;;
57307;SDS011;43152;50.968;18.214;2023-08-12T16:22:13;9.00;;;3.00;;
57307;SDS011;43152;50.968;18.214;2023-08-12T16:31:56;9.20;;;2.40;;
57307;SDS011;43152;50.968;18.214;2023-08-12T16:41:39;7.70;;;1.90;;
57307;SDS011;43152;50.968;18.214;2023-08-12T16:51:22;3.50;;;0.90;;
57307;SDS011;43152;50.968;18.214;2023-08-12T17:01:06;7.40;;;2.50;;
57307;SDS011;43152;50.968;18.214;2023-08-12T17:14:48;3.80;;;0.60;;
57307;SDS011;43152;50.968;18.214;2023-08-12T17:24:31;4.80;;;1.30;;
57307;SDS011;43152;50.968;18.214;2023-08-12T17:34:15;6.20;;;2.20;;
57307;SDS011;43152;50.968;18.214;2023-08-12T17:43:57;25.20;;;2.00;;
57307;SDS011;43152;50.968;18.214;2023-08-12T17:53:40;4.40;;;1.30;;
57307;SDS011;43152;50.968;18.214;2023-08-12T18:03:25;22.10;;;3.20;;
57307;SDS011;43152;50.968;18.214;2023-08-12T18:13:08;5.90;;;2.20;;
57307;SDS011;43152;50.968;18.214;2023-08-12T18:22:53;6.30;;;2.90;;
57307;SDS011;43152;50.968;18.214;2023-08-12T18:32:37;7.20;;;2.30;;
57307;SDS011;43152;50.968;18.214;2023-08-12T18:42:21;7.60;;;2.70;;
57307;SDS011;43152;50.968;18.214;2023-08-12T18:52:07;12.50;;;5.00;;
57307;SDS011;43152;50.968;18.214;2023-08-12T19:01:50;26.30;;;5.90;;
57307;SDS011;43152;50.968;18.214;2023-08-12T19:11:35;12.40;;;2.80;;
57307;SDS011;43152;50.968;18.214;2023-08-12T19:21:19;33.30;;;5.60;;
57307;SDS011;43152;50.968;18.214;2023-08-12T19:31:03;14.90;;;3.00;;
57307;SDS011;43152;50.968;18.214;2023-08-12T19:40:46;23.50;;;3.30;;
57307;SDS011;43152;50.968;18.214;2023-08-12T19:55:45;7.10;;;1.80;;
57307;SDS011;43152;50.968;18.214;2023-08-12T20:05:30;4.80;;;1.70;;
57307;SDS011;43152;50.968;18.214;2023-08-12T20:15:13;12.20;;;1.60;;
57307;SDS011;43152;50.968;18.214;2023-08-12T20:25:07;7.70;;;2.20;;
57307;SDS011;43152;50.968;18.214;2023-08-12T20:34:56;5.10;;;1.80;;
57307;SDS011;43152;50.968;18.214;2023-08-12T20:44:40;5.40;;;1.60;;
57307;SDS011;43152;50.968;18.214;2023-08-12T20:54:24;4.50;;;1.30;;
57307;SDS011;43152;50.968;18.214;2023-08-12T21:04:08;7.10;;;1.10;;
57307;SDS011;43152;50.968;18.214;2023-08-12T21:13:51;0.50;;;0.40;;
57307;SDS011;43152;50.968;18.214;2023-08-12T21:23:34;7.40;;;2.80;;
57307;SDS011;43152;50.968;18.214;2023-08-12T21:33:17;4.90;;;1.60;;
57307;SDS011;43152;50.968;18.214;2023-08-12T21:42:59;12.10;;;2.00;;
57307;SDS011;43152;50.968;18.214;2023-08-12T21:52:42;6.20;;;1.90;;
57307;SDS011;43152;50.968;18.214;2023-08-12T22:21:51;15.40;;;1.90;;
57307;SDS011;43152;50.968;18.214;2023-08-12T22:31:34;6.50;;;1.60;;
57307;SDS011;43152;50.968;18.214;2023-08-12T22:41:18;5.60;;;2.40;;
57307;SDS011;43152;50.968;18.214;2023-08-12T22:51:01;8.40;;;2.20;;
57307;SDS011;43152;50.968;18.214;2023-08-12T23:00:44;7.40;;;2.70;;
57307;SDS011;43152;50.968;18.214;2023-08-12T23:10:27;5.50;;;2.30;;
57307;SDS011;43152;50.968;18.214;2023-08-12T23:20:10;6.80;;;2.40;;
57307;SDS011;43152;50.968;18.214;2023-08-12T23:29:53;5.30;;;2.10;;
57307;SDS011;43152;50.968;18.214;2023-08-12T23:39:36;9.20;;;2.70;;
57307;SDS011;43152;50.968;18.214;2023-08-12T23:49:19;7.30;;;2.40;;
57307;SDS011;43152;50.968;18.214;2023-08-12T23:59:02;6.90;;;2.60;;
